Osoyoos, British Columbia

5:41 PM PST on February 09, 2016 (GMT -0800)
Holiday Inn Osoyoos Lake | | Change Station
CLOSE
Current Station
Personal Weather Station
Location: Osoyoos, BRITISH COLUMBIA
Elevation: 938 ft
Nearby Weather Stations

Elev 938 ft 49.03 °N, 119.46 °W | Updated 6 seconds ago

Partly Cloudy
Partly Cloudy
37.9 °F
Feels Like 35 °F
N
4.0
Wind Variable Wind from NE
Gusts 4.9 mph

Today
High -- | Low -- °F
--% Chance of Precip.
Yesterday
High -- | Low -- °F
Precip. -- in
Pressure 30.33 in
Visibility 15.0 miles
Clouds Mostly Cloudy 25000 ft
Windchill 35 °F
Dew Point 30 °F
Humidity 73%
Rainfall 0.00 in
Snow Depth Not available.
7:16 AM 5:07 PM
Waxing Crescent, 3% visible
METAR CYYF 100100Z 01004KT 15SM BKN250 02/M01 A3027 RMK CI5 SLP269
Pressure 30.33 in
Visibility 15.0 miles
Clouds Mostly Cloudy 25000 ft
Windchill 35 °F
Dew Point 30 °F
Humidity 73%
Rainfall 0.00 in
Snow Depth Not available.
7:16 AM 5:07 PM
Waxing Crescent, 3% visible
METAR CYYF 100100Z 01004KT 15SM BKN250 02/M01 A3027 RMK CI5 SLP269

10-Day Weather Forecast

Almanac

Astronomy

Feb. 09, 2016 Rise Set
Actual Time
Civil Twilight
Nautical Twilight
Astronomical Twilight
Moon
Length of Visible Light
Length of Day
Tomorrow will be .
, % of the Moon is Illuminated

Today's Extremes

Country Highs Country Lows

Community

WunderPhotos

Upload Photos

1,891,760 photos uploaded!

WunderBlog® & News

Nearby

Air Quality

  Air Quality AQ Index Pollutant
Not available.

Snow Depth

Station Depth Elevation

Earthquake Activity

City Distance Mag. Time & Date
Minimum magnitude displayed is 2.5.

Coastal Water Temperatures

Place Temperature

Stations

Nearby Weather Stations

Station Location Temp. Windchill Dew Point Humidity Wind Precip. Elev Updated Type
                   

Watches & Warnings

There are currently no watches in effect.